Time;durP1;ratioP1;P1;durP2;ratioP2;P2;SDS_P1;SDS_P2;PMS_P1;PMS_P2;Temp;Humidity;BMP_temperature;BMP_pressure;BME280_temperature;BME280_humidity;BME280_pressure;Samples;Min_cycle;Max_cycle;Signal;HPM_P1;HPM_P2
2022/09/03 00:00:17;;;;;;;4.65;3.22;;;;;;;11.88;71.91;96728.39;1702965;83;21398;-87
2022/09/03 00:03:09;;;;;;;5.65;3.47;;;;;;;11.86;71.84;96724.64;1704289;82;21007;-87
2022/09/03 00:05:42;;;;;;;4.45;3.35;;;;;;;11.83;71.99;96724.20;1680958;84;21442;-87
2022/09/03 00:08:29;;;;;;;5.47;3.47;;;;;;;11.80;72.03;96727.17;1683853;84;20989;-87
2022/09/03 00:11:24;;;;;;;4.87;3.05;;;;;;;11.73;72.16;96731.78;1694476;82;21419;-87
2022/09/03 00:14:01;;;;;;;5.05;2.90;;;;;;;11.67;72.55;96725.17;1679050;84;20969;-87
2022/09/03 00:16:30;;;;;;;2.95;2.47;;;;;;;11.59;72.83;96726.58;1699522;84;21076;-87
2022/09/03 00:19:00;;;;;;;3.95;2.90;;;;;;;11.54;73.13;96725.79;1688753;84;21045;-87
2022/09/03 00:21:37;;;;;;;5.28;2.70;;;;;;;11.53;73.51;96724.67;1707808;83;20971;-87
2022/09/03 00:24:04;;;;;;;3.75;2.15;;;;;;;11.52;73.63;96721.75;1716244;83;20984;-87
2022/09/03 00:26:34;;;;;;;3.90;2.30;;;;;;;11.51;73.99;96722.25;1716156;83;20941;-87
2022/09/03 00:29:15;;;;;;;4.75;2.33;;;;;;;11.46;74.37;96719.38;1709030;83;21076;-87
2022/09/03 00:31:49;;;;;;;3.60;2.20;;;;;;;11.42;74.71;96712.44;1711241;83;21039;-87
2022/09/03 00:34:26;;;;;;;4.65;2.90;;;;;;;11.38;74.87;96715.55;1702374;83;21087;-87
2022/09/03 00:36:52;;;;;;;6.87;2.67;;;;;;;11.32;74.76;96717.57;1714086;83;20971;-87
2022/09/03 00:39:22;;;;;;;3.77;2.22;;;;;;;11.30;75.00;96716.45;1698797;83;21350;-87
2022/09/03 00:42:09;;;;;;;3.90;2.12;;;;;;;11.29;75.16;96713.53;1701648;83;21039;-86
2022/09/03 00:45:03;;;;;;;2.95;1.98;;;;;;;11.28;75.46;96713.72;1702189;83;21434;-86
2022/09/03 00:47:49;;;;;;;3.83;2.25;;;;;;;11.23;75.78;96706.45;1713466;82;21024;-86
2022/09/03 00:50:33;;;;;;;4.10;2.10;;;;;;;11.19;76.07;96698.67;1708732;82;20948;-86
2022/09/03 00:53:14;;;;;;;4.05;2.58;;;;;;;11.15;76.11;96696.61;1703688;83;20969;-86
2022/09/03 00:56:10;;;;;;;4.15;2.37;;;;;;;11.10;76.19;96696.66;1689757;83;21094;-86
2022/09/03 00:58:50;;;;;;;2.83;2.25;;;;;;;11.13;76.76;96698.09;1699917;83;21398;-86
2022/09/03 01:01:22;;;;;;;3.22;1.90;;;;;;;11.15;76.85;96697.41;1707476;82;20977;-88
2022/09/03 01:03:58;;;;;;;;;;;;;;;11.20;77.20;96704.67;1710032;82;21000;-88
2022/09/03 01:06:35;;;;;;;3.05;2.10;;;;;;;11.24;77.45;96696.86;1713026;82;20129;-88
2022/09/03 01:09:41;;;;;;;4.42;2.35;;;;;;;11.27;78.16;96698.60;1695829;83;21339;-88
2022/09/03 01:12:18;;;;;;;4.72;2.00;;;;;;;11.29;78.56;96700.53;1693464;83;21442;-88
2022/09/03 01:15:11;;;;;;;3.47;2.12;;;;;;;11.35;78.46;96701.11;1700636;83;20975;-89
2022/09/03 01:17:52;;;;;;;7.30;2.92;;;;;;;11.38;77.88;96693.44;1694522;83;21003;-90
2022/09/03 01:20:41;;;;;;;5.65;2.62;;;;;;;11.41;77.58;96698.30;1696623;83;21040;-90
2022/09/03 01:23:21;;;;;;;4.60;2.42;;;;;;;11.45;77.72;96689.14;1712604;83;21501;-87
2022/09/03 01:26:36;;;;;;;3.95;2.37;;;;;;;11.47;77.29;96688.96;1693346;83;21079;-87
2022/09/03 01:29:26;;;;;;;3.37;2.60;;;;;;;11.50;77.52;96695.11;1684396;83;21017;-87
2022/09/03 01:32:09;;;;;;;3.65;2.37;;;;;;;11.51;77.59;96696.72;1691590;83;21458;-87
2022/09/03 01:35:19;;;;;;;4.55;2.80;;;;;;;11.52;77.34;96703.53;1701083;83;21084;-87
2022/09/03 01:38:05;;;;;;;4.30;2.70;;;;;;;11.50;76.96;96701.11;1690417;83;21077;-87
2022/09/03 01:42:12;;;;;;;5.12;3.08;;;;;;;11.52;76.53;96710.04;1696931;83;21395;-87
2022/09/03 01:43:50;;;;;;;4.42;3.10;;;;;;;11.54;76.13;96711.97;1699326;82;21047;-87
2022/09/03 01:46:22;;;;;;;7.45;3.45;;;;;;;11.53;75.89;96710.36;1705889;82;20980;-87
2022/09/03 01:49:12;;;;;;;4.45;3.25;;;;;;;11.49;75.95;96708.61;1700098;82;21072;-89
2022/09/03 01:51:40;;;;;;;4.62;3.05;;;;;;;11.43;75.73;96706.24;1724888;82;20953;-89
2022/09/03 01:54:23;;;;;;;5.87;3.08;;;;;;;11.36;75.56;96709.23;1707946;82;21059;-89
2022/09/03 01:57:20;;;;;;;5.47;3.12;;;;;;;11.30;75.87;96706.05;1710678;82;21079;-88
2022/09/03 02:00:00;;;;;;;4.28;2.52;;;;;;;11.28;76.18;96704.61;1700632;83;21031;-89
2022/09/03 02:02:27;;;;;;;5.70;3.05;;;;;;;11.28;76.47;96713.72;1711397;83;21051;-88
2022/09/03 02:05:13;;;;;;;4.83;3.05;;;;;;;11.23;76.43;96713.45;1711240;83;21387;-88
2022/09/03 02:07:50;;;;;;;4.55;3.15;;;;;;;11.16;76.57;96709.43;1695898;83;21016;-89
2022/09/03 02:10:32;;;;;;;7.08;3.72;;;;;;;11.09;76.37;96713.73;1716613;83;21348;-89
2022/09/03 02:13:19;;;;;;;4.08;2.95;;;;;;;11.01;76.69;96714.59;1707069;83;21027;-89
2022/09/03 02:15:46;;;;;;;6.67;2.90;;;;;;;10.99;76.93;96713.16;1713826;83;20940;-88
2022/09/03 02:18:25;;;;;;;5.83;3.40;;;;;;;10.96;77.08;96714.33;1696835;83;21031;-88
2022/09/03 02:20:52;;;;;;;5.65;3.20;;;;;;;10.95;76.89;96717.11;1707942;83;21435;-88
2022/09/03 02:23:18;;;;;;;6.97;3.20;;;;;;;10.96;77.08;96716.13;1691338;83;20952;-88
2022/09/03 02:25:50;;;;;;;5.67;3.05;;;;;;;10.96;77.26;96716.93;1711732;82;21318;-86
2022/09/03 02:28:16;;;;;;;4.45;3.00;;;;;;;10.96;77.32;96718.72;1691307;83;21003;-88
2022/09/03 02:30:42;;;;;;;4.92;2.85;;;;;;;10.93;77.59;96721.68;1701304;83;21269;-88
2022/09/03 02:33:08;;;;;;;4.12;3.25;;;;;;;10.89;77.80;96723.80;1694858;83;21024;-88
2022/09/03 02:35:34;;;;;;;6.03;3.08;;;;;;;10.87;77.84;96722.36;1696407;83;21025;-88
2022/09/03 02:38:17;;;;;;;4.92;3.35;;;;;;;10.85;77.98;96728.23;1695034;83;20924;-88
2022/09/03 02:40:43;;;;;;;5.15;3.10;;;;;;;10.81;78.15;96723.38;1707024;83;21003;-88
2022/09/03 02:43:27;;;;;;;5.28;2.92;;;;;;;10.81;78.38;96721.28;1710137;82;21393;-88
2022/09/03 02:45:58;;;;;;;4.53;2.95;;;;;;;10.81;78.46;96725.98;1698392;82;20945;-87
2022/09/03 02:48:24;;;;;;;4.30;3.15;;;;;;;10.77;78.74;96726.02;1684397;82;21348;-89
2022/09/03 02:50:49;;;;;;;5.42;3.05;;;;;;;10.76;78.87;96729.61;1678963;84;21020;-89
2022/09/03 02:53:15;;;;;;;6.30;2.98;;;;;;;10.72;78.85;96732.22;1691875;83;21000;-88
2022/09/03 02:55:41;;;;;;;4.67;2.90;;;;;;;10.72;79.27;96724.91;1700697;83;21351;-89
2022/09/03 02:58:07;;;;;;;6.37;3.20;;;;;;;10.72;79.46;96728.81;1707335;83;21003;-88
2022/09/03 03:00:34;;;;;;;3.75;2.37;;;;;;;10.73;79.84;96727.33;1689006;84;20991;-88
2022/09/03 03:03:02;;;;;;;3.40;2.50;;;;;;;10.73;79.74;96731.72;1688471;84;21060;-88
2022/09/03 03:05:37;;;;;;;6.97;2.95;;;;;;;10.73;80.00;96732.53;1688857;83;20984;-89
2022/09/03 03:08:02;;;;;;;3.80;2.70;;;;;;;10.73;80.20;96724.73;1700683;83;20980;-88
2022/09/03 03:10:28;;;;;;;4.97;3.00;;;;;;;10.72;80.28;96730.11;1711687;83;21418;-88
2022/09/03 03:12:54;;;;;;;4.40;3.17;;;;;;;10.70;80.55;96721.68;1697996;83;21004;-89
2022/09/03 03:15:20;;;;;;;6.37;3.22;;;;;;;10.67;80.36;96725.93;1707431;82;21126;-88
2022/09/03 03:17:45;;;;;;;4.95;2.83;;;;;;;10.66;80.38;96731.62;1698902;83;21407;-88
2022/09/03 03:20:11;;;;;;;5.58;3.02;;;;;;;10.65;80.54;96739.10;1699475;83;21004;-89
2022/09/03 03:22:37;;;;;;;5.03;3.00;;;;;;;10.64;80.61;96743.98;1711672;83;21072;-88
2022/09/03 03:25:04;;;;;;;4.42;2.77;;;;;;;10.62;80.60;96740.75;1717724;83;20964;-89
2022/09/03 03:27:30;;;;;;;10.98;3.00;;;;;;;10.63;80.93;96745.45;1684524;83;21067;-88
2022/09/03 03:29:56;;;;;;;3.87;2.87;;;;;;;10.58;81.07;96738.67;1712233;82;21020;-88
2022/09/03 03:32:22;;;;;;;4.95;3.30;;;;;;;10.56;81.37;96734.92;1695084;83;21058;-88
2022/09/03 03:34:48;;;;;;;4.72;2.72;;;;;;;10.55;81.49;96728.11;1689161;83;21028;-89
2022/09/03 03:37:14;;;;;;;4.50;3.22;;;;;;;10.54;81.51;96727.80;1693340;83;21028;-88
2022/09/03 03:39:40;;;;;;;4.83;2.75;;;;;;;10.52;81.48;96721.97;1694668;83;20964;-88
2022/09/03 03:42:06;;;;;;;3.22;2.70;;;;;;;10.50;81.49;96721.34;1711284;82;21521;-88
2022/09/03 03:44:32;;;;;;;5.55;3.10;;;;;;;10.49;81.65;96715.83;1701979;83;20981;-89
2022/09/03 03:46:58;;;;;;;3.80;2.70;;;;;;;10.47;81.77;96707.40;1695805;83;21299;-88
2022/09/03 03:49:23;;;;;;;5.33;2.95;;;;;;;10.45;81.88;96706.77;1701312;83;20923;-88
2022/09/03 03:51:49;;;;;;;4.50;2.90;;;;;;;10.48;81.83;96712.42;1719335;83;21335;-88
2022/09/03 03:54:15;;;;;;;4.12;3.02;;;;;;;10.45;81.71;96711.47;1708839;83;21003;-88
2022/09/03 03:56:40;;;;;;;5.53;3.45;;;;;;;10.45;81.87;96711.96;1699539;83;20957;-88
2022/09/03 03:59:06;;;;;;;3.90;2.90;;;;;;;10.43;82.12;96708.73;1702378;83;20984;-89
2022/09/03 04:01:32;;;;;;;4.90;3.12;;;;;;;10.41;82.06;96715.86;1701797;83;20979;-88
2022/09/03 04:03:59;;;;;;;5.83;3.45;;;;;;;10.40;81.93;96716.35;1700865;83;21054;-89
2022/09/03 04:06:24;;;;;;;3.85;3.02;;;;;;;10.41;81.94;96718.00;1715818;83;21004;-88
2022/09/03 04:08:50;;;;;;;4.58;3.20;;;;;;;10.41;82.15;96723.20;1714508;82;20992;-88
2022/09/03 04:11:19;;;;;;;4.33;2.87;;;;;;;10.42;82.15;96726.11;1708037;83;20972;-88
2022/09/03 04:13:45;;;;;;;4.55;3.12;;;;;;;10.45;82.08;96728.84;1699157;83;21095;-88
2022/09/03 04:16:17;;;;;;;5.33;2.92;;;;;;;10.45;82.29;96736.64;1717403;83;20992;-87
2022/09/03 04:18:43;;;;;;;7.87;3.72;;;;;;;10.46;82.35;96735.66;1710070;83;20999;-89
2022/09/03 04:21:12;;;;;;;4.90;3.08;;;;;;;10.45;82.30;96732.75;1702459;83;21019;-88
2022/09/03 04:23:40;;;;;;;5.00;2.67;;;;;;;10.44;82.30;96734.53;1698861;83;21024;-89
2022/09/03 04:26:07;;;;;;;3.83;3.00;;;;;;;10.46;82.33;96735.17;1696176;83;21028;-89
2022/09/03 04:28:33;;;;;;;5.72;3.85;;;;;;;10.43;82.47;96741.20;1701691;83;21068;-88
2022/09/03 04:31:04;;;;;;;5.90;3.35;;;;;;;10.43;82.70;96734.71;1690880;83;21033;-88
2022/09/03 04:33:31;;;;;;;5.20;3.22;;;;;;;10.42;82.73;96742.19;1691949;83;21103;-88
2022/09/03 04:36:19;;;;;;;8.95;3.30;;;;;;;10.41;82.85;96746.58;1692160;83;21297;-88
2022/09/03 04:38:47;;;;;;;4.67;3.30;;;;;;;10.40;82.80;96746.23;1708363;83;21088;-89
2022/09/03 04:41:16;;;;;;;5.30;3.02;;;;;;;10.41;83.06;96745.73;1695856;83;21051;-89
2022/09/03 04:43:42;;;;;;;4.00;3.08;;;;;;;10.43;83.08;96751.11;1694871;83;21052;-89
2022/09/03 04:46:11;;;;;;;6.60;3.50;;;;;;;10.46;83.25;96756.45;1699999;83;20989;-88
2022/09/03 04:48:37;;;;;;;5.33;2.83;;;;;;;10.47;83.12;96754.16;1703491;83;21369;-88
2022/09/03 04:51:09;;;;;;;5.22;3.58;;;;;;;10.50;83.34;96755.11;1696052;82;21076;-89
2022/09/03 04:53:37;;;;;;;;;;;;;;;10.53;83.44;96754.77;1717278;82;20968;-89
2022/09/03 04:56:11;;;;;;;4.42;3.08;;;;;;;10.57;83.53;96758.62;1689639;83;20108;-89
2022/09/03 04:58:37;;;;;;;3.98;3.20;;;;;;;10.59;83.76;96761.89;1696299;83;21081;-89
2022/09/03 05:01:11;;;;;;;4.05;2.77;;;;;;;10.67;83.89;96761.82;1704488;83;20999;-89
2022/09/03 05:03:37;;;;;;;5.55;3.02;;;;;;;10.73;83.91;96761.61;1715666;82;21008;-89
2022/09/03 05:06:04;;;;;;;4.47;3.10;;;;;;;10.78;84.17;96756.23;1711770;82;21426;-89
2022/09/03 05:08:31;;;;;;;4.80;3.22;;;;;;;10.83;84.41;96759.11;1706377;82;21019;-90
2022/09/03 05:11:00;;;;;;;5.20;3.10;;;;;;;10.89;84.43;96756.78;1705689;82;21446;-90
2022/09/03 05:13:27;;;;;;;4.97;3.65;;;;;;;10.93;84.54;96753.69;1715138;83;20992;-90
2022/09/03 05:16:02;;;;;;;4.67;3.20;;;;;;;10.99;84.83;96748.27;1717722;83;21469;-90
2022/09/03 05:18:28;;;;;;;5.55;3.77;;;;;;;11.07;85.33;96745.13;1704443;83;21004;-89
2022/09/03 05:21:02;;;;;;;4.30;3.20;;;;;;;11.14;85.32;96747.81;1704999;82;20999;-90
2022/09/03 05:23:28;;;;;;;5.70;2.58;;;;;;;11.17;85.39;96751.36;1701688;83;21457;-89
2022/09/03 05:25:57;;;;;;;3.12;2.55;;;;;;;11.19;85.17;96744.19;1711923;82;21040;-88
2022/09/03 05:28:26;;;;;;;3.87;2.95;;;;;;;11.26;85.18;96738.61;1701960;83;20972;-87
2022/09/03 05:31:00;;;;;;;4.92;3.10;;;;;;;11.37;85.40;96742.06;1710582;83;20976;-88
2022/09/03 05:33:26;;;;;;;4.30;3.00;;;;;;;11.45;84.56;96735.98;1691016;83;21027;-88
2022/09/03 05:36:00;;;;;;;4.67;2.90;;;;;;;11.50;84.94;96737.55;1691645;82;20972;-87
2022/09/03 05:38:26;;;;;;;5.17;3.47;;;;;;;11.52;84.71;96735.57;1690642;82;21422;-88
2022/09/03 05:40:52;;;;;;;6.97;3.47;;;;;;;11.51;84.62;96737.05;1706840;83;21087;-88
2022/09/03 05:43:18;;;;;;;5.00;3.25;;;;;;;11.59;84.73;96738.28;1717756;81;21043;-88
2022/09/03 05:45:44;;;;;;;5.97;3.45;;;;;;;11.60;83.79;96740.70;1717624;83;20973;-88
2022/09/03 05:48:10;;;;;;;5.90;3.12;;;;;;;11.62;83.96;96740.03;1712483;82;20923;-88
2022/09/03 05:50:36;;;;;;;6.25;3.45;;;;;;;11.69;84.37;96737.01;1716216;83;21426;-88
2022/09/03 05:53:02;;;;;;;5.12;3.58;;;;;;;11.72;84.31;96738.47;1704108;83;21047;-88
2022/09/03 05:55:27;;;;;;;7.47;3.77;;;;;;;11.74;84.42;96727.38;1711279;82;21023;-88
2022/09/03 05:57:53;;;;;;;5.35;3.20;;;;;;;11.73;84.38;96727.88;1689647;83;20993;-88
2022/09/03 06:00:19;;;;;;;5.95;3.52;;;;;;;11.76;84.32;96730.61;1693483;82;21008;-88
2022/09/03 06:02:52;;;;;;;4.58;2.98;;;;;;;11.79;84.35;96730.77;1708445;83;21398;-88
2022/09/03 06:05:18;;;;;;;4.67;3.72;;;;;;;11.83;83.34;96730.72;1709512;82;20995;-88
2022/09/03 06:07:47;;;;;;;5.55;3.22;;;;;;;11.88;83.88;96732.30;1700300;82;20990;-87
2022/09/03 06:10:12;;;;;;;6.08;3.47;;;;;;;11.93;83.85;96729.45;1690769;84;21040;-88
2022/09/03 06:12:38;;;;;;;5.22;3.45;;;;;;;12.00;83.84;96732.94;1688578;83;21079;-88
2022/09/03 06:15:04;;;;;;;5.33;3.12;;;;;;;12.03;84.02;96734.37;1699283;82;20992;-88
2022/09/03 06:17:31;;;;;;;4.42;2.42;;;;;;;12.08;84.25;96728.63;1699929;83;21079;-88
2022/09/03 06:19:56;;;;;;;4.58;2.77;;;;;;;12.08;84.66;96727.33;1714881;82;21389;-88
2022/09/03 06:22:24;;;;;;;3.10;2.20;;;;;;;12.10;85.09;96724.85;1696761;84;21020;-88
2022/09/03 06:24:50;;;;;;;4.53;2.87;;;;;;;12.14;85.17;96722.69;1712396;82;20980;-88
2022/09/03 06:27:15;;;;;;;4.58;2.67;;;;;;;12.18;85.08;96729.13;1691384;83;21040;-88
2022/09/03 06:29:41;;;;;;;4.47;3.27;;;;;;;12.24;85.25;96729.23;1694757;83;20940;-88
2022/09/03 06:32:08;;;;;;;5.40;3.40;;;;;;;12.32;84.99;96734.81;1691805;83;21395;-87
2022/09/03 06:34:34;;;;;;;5.85;3.40;;;;;;;12.39;84.27;96735.70;1694183;82;21040;-88
2022/09/03 06:36:59;;;;;;;5.85;3.30;;;;;;;12.47;84.49;96738.68;1701481;82;20974;-88
2022/09/03 06:39:25;;;;;;;6.50;3.62;;;;;;;12.57;84.79;96739.20;1717748;82;21080;-88
2022/09/03 06:41:52;;;;;;;6.15;3.55;;;;;;;12.62;84.03;96749.38;1736226;82;21013;-87
2022/09/03 06:44:18;;;;;;;6.70;3.65;;;;;;;12.67;84.08;96754.02;1741559;81;20978;-88
2022/09/03 06:46:43;;;;;;;5.47;3.67;;;;;;;12.77;83.79;96750.62;1724225;82;21005;-88
2022/09/03 06:49:10;;;;;;;5.08;3.70;;;;;;;12.92;84.90;96756.58;1715581;83;20993;-88
2022/09/03 06:51:37;;;;;;;4.40;3.12;;;;;;;13.01;83.42;96751.22;1697804;82;21017;-87
2022/09/03 06:54:07;;;;;;;5.67;3.37;;;;;;;13.11;83.89;96753.83;1715503;83;21028;-88
2022/09/03 06:56:34;;;;;;;6.00;3.67;;;;;;;13.22;83.60;96752.55;1722829;82;20966;-87
2022/09/03 06:59:07;;;;;;;6.42;3.90;;;;;;;13.28;83.03;96759.62;1708311;82;21020;-88
2022/09/03 07:01:33;;;;;;;6.03;3.65;;;;;;;13.35;83.45;96759.69;1700192;83;20981;-88
2022/09/03 07:04:01;;;;;;;6.97;4.42;;;;;;;13.43;83.45;96751.20;1713252;83;20969;-88
2022/09/03 07:06:29;;;;;;;5.90;4.10;;;;;;;13.48;82.93;96761.06;1724207;82;21013;-88
2022/09/03 07:08:56;;;;;;;7.45;4.42;;;;;;;13.52;83.10;96759.70;1704530;83;20994;-88
2022/09/03 07:11:25;;;;;;;6.47;4.55;;;;;;;13.53;82.89;96754.80;1716790;83;20969;-88
2022/09/03 07:13:52;;;;;;;6.50;4.87;;;;;;;13.54;83.21;96753.80;1695715;83;21025;-86
2022/09/03 07:16:22;;;;;;;5.37;4.25;;;;;;;13.59;82.90;96753.21;1737069;82;21068;-86
2022/09/03 07:18:48;;;;;;;6.45;4.30;;;;;;;13.60;82.16;96751.71;1695094;83;21057;-87
2022/09/03 07:21:17;;;;;;;5.72;3.62;;;;;;;13.60;81.71;96753.02;1719108;83;20946;-86
2022/09/03 07:23:43;;;;;;;5.50;3.83;;;;;;;13.66;82.55;96748.32;1737075;82;20973;-86
2022/09/03 07:26:18;;;;;;;6.03;4.35;;;;;;;13.73;82.81;96752.30;1715433;82;21412;-86
2022/09/03 07:28:44;;;;;;;6.20;3.45;;;;;;;13.82;82.64;96749.82;1736662;82;21040;-86
2022/09/03 07:31:14;;;;;;;3.95;3.17;;;;;;;13.88;82.32;96751.68;1741322;82;20992;-86
2022/09/03 07:33:41;;;;;;;6.70;4.28;;;;;;;13.95;82.30;96751.70;1737074;82;20980;-86
2022/09/03 07:36:11;;;;;;;5.87;3.72;;;;;;;13.97;82.37;96748.39;1695770;83;21363;-86
2022/09/03 07:38:36;;;;;;;5.42;3.90;;;;;;;13.98;81.63;96752.11;1675199;83;20974;-87
2022/09/03 07:41:05;;;;;;;6.40;4.03;;;;;;;14.03;82.41;96752.86;1709145;83;20989;-86
2022/09/03 07:43:38;;;;;;;7.15;3.45;;;;;;;14.07;82.23;96755.38;1694991;82;21004;-86
2022/09/03 07:46:06;;;;;;;5.08;3.47;;;;;;;14.15;82.47;96753.09;1688707;83;21384;-86
2022/09/03 07:48:32;;;;;;;5.42;3.33;;;;;;;14.24;81.49;96748.02;1688778;83;21102;-86
2022/09/03 07:51:00;;;;;;;5.95;3.92;;;;;;;14.28;81.30;96749.23;1711066;82;21003;-86
2022/09/03 07:53:27;;;;;;;5.40;3.65;;;;;;;14.35;81.64;96759.23;1703316;83;21035;-86
2022/09/03 07:55:56;;;;;;;6.03;4.30;;;;;;;14.47;81.20;96760.78;1714014;82;20936;-86
2022/09/03 07:58:23;;;;;;;5.53;3.52;;;;;;;14.45;80.05;96763.59;1700683;83;21016;-86
2022/09/03 08:00:49;;;;;;;5.60;4.17;;;;;;;14.47;79.87;96763.39;1715937;82;21051;-86
2022/09/03 08:03:15;;;;;;;5.97;4.40;;;;;;;14.48;80.27;96769.77;1698721;83;21063;-86
2022/09/03 08:05:41;;;;;;;4.97;3.77;;;;;;;14.54;80.42;96778.12;1716835;83;20987;-86
2022/09/03 08:08:07;;;;;;;6.17;3.87;;;;;;;14.56;79.30;96779.23;1715018;82;21022;-86
2022/09/03 08:10:37;;;;;;;5.10;3.70;;;;;;;14.53;80.15;96775.70;1695171;83;20960;-86
2022/09/03 08:13:04;;;;;;;5.83;3.98;;;;;;;14.53;79.56;96772.59;1717076;83;21008;-86
2022/09/03 08:15:31;;;;;;;5.85;4.72;;;;;;;14.58;79.39;96782.45;1717570;83;21146;-86
2022/09/03 08:17:59;;;;;;;8.35;4.45;;;;;;;14.60;79.34;96776.52;1707521;82;20989;-87
2022/09/03 08:20:26;;;;;;;5.65;4.03;;;;;;;14.67;80.17;96777.36;1713459;83;21434;-86
2022/09/03 08:22:52;;;;;;;7.03;4.20;;;;;;;14.74;78.89;96770.82;1711136;83;21241;-86
2022/09/03 08:25:18;;;;;;;5.95;3.80;;;;;;;14.71;78.39;96774.14;1705435;83;21327;-87
2022/09/03 08:27:44;;;;;;;6.17;3.90;;;;;;;14.73;79.20;96771.32;1688836;83;20988;-86
2022/09/03 08:30:10;;;;;;;7.90;4.37;;;;;;;14.73;78.97;96771.83;1697142;83;20943;-86
2022/09/03 08:32:39;;;;;;;6.12;3.55;;;;;;;14.77;78.65;96772.53;1735817;82;20977;-86
2022/09/03 08:35:08;;;;;;;5.70;3.60;;;;;;;14.87;80.20;96769.55;1716636;83;20959;-86
2022/09/03 08:37:34;;;;;;;5.85;3.25;;;;;;;14.99;79.09;96762.72;1696798;82;20976;-87
2022/09/03 08:40:00;;;;;;;6.62;4.35;;;;;;;15.06;78.80;96761.41;1713432;82;21518;-86
2022/09/03 08:42:56;;;;;;;6.00;3.85;;;;;;;15.13;78.98;96764.82;1732898;82;20976;-86
2022/09/03 08:45:22;;;;;;;4.83;3.27;;;;;;;15.20;78.30;96755.98;1720366;82;21023;-86
2022/09/03 08:48:02;;;;;;;5.47;4.08;;;;;;;15.27;78.02;96759.39;1708755;83;21079;-86
2022/09/03 08:50:31;;;;;;;6.03;3.70;;;;;;;15.28;78.07;96750.53;1698768;82;21047;-86
2022/09/03 08:53:24;;;;;;;6.20;3.92;;;;;;;15.23;77.98;96752.15;1695367;83;21047;-86
2022/09/03 08:55:53;;;;;;;;;;;;;;;15.20;77.56;96743.40;1723081;82;21040;-86
2022/09/03 08:58:26;;;;;;;5.78;4.00;;;;;;;15.22;77.51;96750.55;1723977;83;20089;-86
2022/09/03 09:01:15;;;;;;;4.42;3.60;;;;;;;15.16;77.24;96747.44;1704463;83;20979;-86
2022/09/03 09:04:17;;;;;;;6.78;4.17;;;;;;;15.19;78.04;96750.95;1695229;83;21016;-86
2022/09/03 09:07:16;;;;;;;7.92;4.25;;;;;;;15.22;78.04;96753.16;1697691;82;20981;-86
2022/09/03 09:09:56;;;;;;;5.35;3.70;;;;;;;15.23;78.49;96755.58;1711230;83;21039;-86
2022/09/03 09:12:39;;;;;;;5.47;4.08;;;;;;;15.33;77.44;96760.42;1720298;83;21026;-86
2022/09/03 09:15:29;;;;;;;5.95;3.92;;;;;;;15.39;77.74;96758.29;1706959;82;21059;-86
2022/09/03 09:18:19;;;;;;;5.65;3.90;;;;;;;15.47;78.21;96756.78;1722691;83;20979;-86
2022/09/03 09:21:12;;;;;;;4.50;3.37;;;;;;;15.52;77.35;96765.34;1711302;83;20988;-86
2022/09/03 09:23:46;;;;;;;5.08;4.15;;;;;;;15.50;76.97;96749.02;1693818;83;21016;-87
2022/09/03 09:26:15;;;;;;;5.35;3.80;;;;;;;15.51;76.47;96758.48;1712273;82;20972;-86
2022/09/03 09:28:40;;;;;;;5.37;3.37;;;;;;;15.50;77.14;96747.21;1724628;82;21052;-86
2022/09/03 09:31:07;;;;;;;6.97;3.90;;;;;;;15.55;76.42;96748.70;1718768;83;21091;-86
2022/09/03 09:33:33;;;;;;;4.45;2.80;;;;;;;15.61;76.91;96756.27;1696299;83;21083;-86
2022/09/03 09:36:03;;;;;;;4.60;3.10;;;;;;;15.68;78.00;96755.77;1719387;83;21007;-86
2022/09/03 09:38:32;;;;;;;5.58;3.62;;;;;;;15.75;77.56;96759.17;1724874;82;21052;-86
2022/09/03 09:41:11;;;;;;;5.17;3.77;;;;;;;15.82;76.56;96756.56;1724357;82;21375;-87
2022/09/03 09:43:37;;;;;;;5.72;3.62;;;;;;;15.86;77.26;96753.31;1745117;81;21059;-86
2022/09/03 09:46:15;;;;;;;6.45;3.70;;;;;;;15.94;76.92;96754.89;1683794;83;21000;-86
2022/09/03 09:48:56;;;;;;;5.83;3.98;;;;;;;16.00;76.54;96757.21;1694802;83;20999;-86
2022/09/03 09:51:30;;;;;;;7.15;4.10;;;;;;;16.03;75.93;96757.59;1713264;83;20983;-86
2022/09/03 09:54:12;;;;;;;4.10;3.40;;;;;;;16.11;76.95;96748.72;1712644;83;21351;-86
2022/09/03 09:56:38;;;;;;;4.42;3.52;;;;;;;16.21;76.89;96754.31;1735647;82;21503;-86
2022/09/03 09:59:09;;;;;;;5.42;3.70;;;;;;;16.31;76.89;96754.68;1720388;82;21058;-86
2022/09/03 10:01:37;;;;;;;5.78;3.92;;;;;;;;;;1710005;83;20978;-87
2022/09/03 10:04:26;;;;;;;4.83;3.33;;;;;;;16.46;76.49;96755.73;1703686;83;21012;-87
2022/09/03 10:06:55;;;;;;;5.58;3.33;;;;;;;16.57;76.73;96750.30;1714746;83;21438;-87
2022/09/03 10:09:29;;;;;;;4.70;3.62;;;;;;;16.64;76.64;96748.47;1720123;83;20971;-86
2022/09/03 10:12:13;;;;;;;5.05;3.70;;;;;;;16.70;75.72;96755.00;1723384;83;20972;-86
2022/09/03 10:14:44;;;;;;;4.90;3.60;;;;;;;16.76;75.91;96747.62;1705973;82;21060;-86
2022/09/03 10:17:27;;;;;;;4.90;3.42;;;;;;;16.82;75.76;96753.83;1720882;83;20999;-86
2022/09/03 10:20:26;;;;;;;4.80;3.67;;;;;;;16.82;73.91;96753.03;1714816;83;21042;-86
2022/09/03 10:23:04;;;;;;;5.67;3.10;;;;;;;16.75;73.99;96749.92;1718035;82;20951;-86
2022/09/03 10:25:41;;;;;;;4.30;3.33;;;;;;;16.77;75.32;96754.47;1754467;82;21057;-86
2022/09/03 10:28:08;;;;;;;5.37;3.55;;;;;;;16.89;75.32;96750.64;1730591;82;20997;-85
2022/09/03 10:30:46;;;;;;;3.85;2.60;;;;;;;17.00;74.14;96753.11;1710896;83;20972;-87
2022/09/03 10:33:19;;;;;;;6.15;3.45;;;;;;;17.04;74.37;96749.03;1701947;82;21039;-86
2022/09/03 10:35:51;;;;;;;6.00;3.70;;;;;;;17.08;74.23;96748.89;1695322;83;21059;-86
2022/09/03 10:38:27;;;;;;;;;;;;;;;17.20;75.51;96738.51;1720389;83;21046;-86
2022/09/03 10:41:10;;;;;;;4.20;3.25;;;;;;;17.27;74.24;96743.22;1695471;83;20146;-87
2022/09/03 10:44:05;;;;;;;4.60;3.25;;;;;;;17.30;73.60;96742.78;1699032;83;21047;-86
2022/09/03 10:46:47;;;;;;;4.30;3.50;;;;;;;17.28;72.10;96738.25;1716872;83;21112;-86
2022/09/03 10:49:44;;;;;;;5.42;3.72;;;;;;;17.33;72.51;96740.52;1688640;83;21027;-86
2022/09/03 10:52:35;;;;;;;5.85;3.98;;;;;;;17.40;72.32;96729.44;1713616;83;20984;-87
2022/09/03 10:55:14;;;;;;;5.45;3.37;;;;;;;17.48;73.36;96734.13;1716624;83;21397;-86
2022/09/03 10:58:29;;;;;;;4.37;2.80;;;;;;;17.57;73.43;96724.94;1695066;82;20967;-86
2022/09/03 11:01:03;;;;;;;3.42;2.98;;;;;;;17.66;73.44;96727.59;1685471;83;20944;-86
2022/09/03 11:03:54;;;;;;;4.47;3.10;;;;;;;17.77;73.18;96722.16;1713151;82;21040;-87
2022/09/03 11:06:31;;;;;;;5.28;3.50;;;;;;;17.85;72.16;96718.72;1694860;82;21394;-86
2022/09/03 11:09:12;;;;;;;5.70;3.27;;;;;;;17.89;71.94;96719.08;1709218;82;21003;-87
2022/09/03 11:11:57;;;;;;;3.98;3.33;;;;;;;17.94;73.00;96714.78;1694953;83;21345;-87
2022/09/03 11:14:40;;;;;;;4.83;2.92;;;;;;;18.03;72.67;96720.53;1684496;83;21094;-87
2022/09/03 11:17:14;;;;;;;3.98;3.00;;;;;;;18.05;71.28;96716.37;1691603;84;21039;-86
2022/09/03 11:19:50;;;;;;;4.30;3.50;;;;;;;18.07;70.44;96719.61;1707139;82;20973;-86
2022/09/03 11:22:17;;;;;;;5.47;3.33;;;;;;;18.06;70.55;96707.45;1691824;84;20977;-86
2022/09/03 11:24:44;;;;;;;4.65;3.17;;;;;;;18.10;71.54;96709.44;1688135;82;21004;-86
2022/09/03 11:27:30;;;;;;;5.20;3.42;;;;;;;18.16;71.81;96712.50;1697369;84;21109;-87
2022/09/03 11:30:13;;;;;;;4.90;3.30;;;;;;;18.26;71.84;96715.92;1681726;84;21023;-86
2022/09/03 11:32:58;;;;;;;5.22;3.30;;;;;;;18.32;70.67;96715.03;1707734;83;21051;-86
2022/09/03 11:35:32;;;;;;;3.98;3.20;;;;;;;18.30;69.84;96717.88;1697500;83;21012;-87
2022/09/03 11:38:07;;;;;;;5.20;3.40;;;;;;;18.39;71.22;96713.64;1698987;82;20953;-87
2022/09/03 11:40:38;;;;;;;3.52;3.02;;;;;;;18.49;71.70;96706.80;1691049;83;21056;-88
2022/09/03 11:43:15;;;;;;;4.08;3.40;;;;;;;18.56;68.30;96709.36;1696534;83;21257;-87
2022/09/03 11:45:41;;;;;;;5.30;3.65;;;;;;;18.49;69.61;96703.38;1702254;82;20989;-87
2022/09/03 11:48:44;;;;;;;4.33;3.65;;;;;;;18.53;70.98;96706.64;1704316;83;21020;-87
2022/09/03 11:51:34;;;;;;;4.67;3.50;;;;;;;18.64;69.71;96699.84;1680576;83;20983;-88
2022/09/03 11:54:22;;;;;;;4.25;3.67;;;;;;;18.80;72.03;96694.45;1694221;83;21039;-87
2022/09/03 11:56:49;;;;;;;6.05;3.92;;;;;;;18.87;70.09;96699.09;1706210;83;21071;-87
2022/09/03 11:59:24;;;;;;;4.80;3.22;;;;;;;18.91;71.07;96685.78;1710252;82;20954;-87
2022/09/03 12:01:54;;;;;;;5.28;3.40;;;;;;;18.85;68.47;96698.52;1696388;83;21060;-87